EGPD/ABZ METAR and TAF weather

Enter ICAO airport designator
Station Type Date Time Source
EGPD METAR 2019/02/20 07:20 UTC NOAA

EGPD 200720Z AUTO 20009KT 9999 FEW015 09/07 Q1003


Station Type Date Time Source
EGPD Decoded METAR 2019/02/20 07:20 UTC NOAA

Aberdeen / Dyce, United Kingdom (EGPD) 57-12N 002-13W 0M
Feb 20, 2019 - 02:20 AM EST / 2019.02.20 0720 UTC
Wind: from the SSW (200 degrees) at 10 MPH (9 KT):0
Visibility: greater than 7 mile(s):0
Sky conditions: mostly clear
Temperature: 48 F (9 C)
Dew Point: 44 F (7 C)
Relative Humidity: 87%
Pressure (altimeter): 29.62 in. Hg (1003 hPa)
ob: EGPD 200720Z AUTO 20009KT 9999 FEW015 09/07 Q1003
cycle: 7

Station Type Date Time Source
EGPD TAF 2019/02/20 06:06 UTC NOAA

TAF EGPD 200502Z 2006/2106 18009KT 9999 FEW012 SCT040 PROB40
TEMPO 2006/2008 8000 -RA BKN008
TEMPO 2008/2015 BKN012 PROB40
TEMPO 2009/2012 BKN008


Example: see airport list